createdAt,value
2019-02-07T00:00:27.516Z,99381.77
2019-02-07T00:02:54.938Z,99377.65
2019-02-07T00:05:24.189Z,99381.13
2019-02-07T00:07:51.632Z,99372.21
2019-02-07T00:10:19.094Z,99365.91
2019-02-07T00:12:46.526Z,99369.45
2019-02-07T00:15:13.996Z,99366.80
2019-02-07T00:17:41.414Z,99369.37
2019-02-07T00:20:09.661Z,99358.95
2019-02-07T00:22:39.195Z,99352.48
2019-02-07T00:25:04.584Z,99363.70
2019-02-07T00:27:32.055Z,99349.27
2019-02-07T00:29:59.480Z,99345.94
2019-02-07T00:32:27.008Z,99331.92
2019-02-07T00:34:54.425Z,99328.92
2019-02-07T00:37:21.870Z,99324.41
2019-02-07T00:39:49.339Z,99319.46
2019-02-07T00:42:16.843Z,99316.60
2019-02-07T00:44:50.699Z,99305.02
2019-02-07T00:47:11.925Z,99297.44
2019-02-07T00:49:39.399Z,99288.86
2019-02-07T00:52:06.886Z,99289.15
2019-02-07T00:54:34.536Z,99288.74
2019-02-07T00:57:02.000Z,99276.40
2019-02-07T00:59:29.521Z,99265.74
2019-02-07T01:01:56.972Z,99261.02
2019-02-07T01:04:24.436Z,99261.55
2019-02-07T01:06:51.917Z,99259.53
2019-02-07T01:09:19.363Z,99249.88
2019-02-07T01:11:46.858Z,99242.02
2019-02-07T01:14:14.316Z,99249.66
2019-02-07T01:16:41.758Z,99240.48
2019-02-07T01:19:09.249Z,99231.14
2019-02-07T01:21:36.693Z,99226.45
2019-02-07T01:24:05.231Z,99221.79
2019-02-07T01:26:32.675Z,99224.70
2019-02-07T01:29:00.146Z,99224.79
2019-02-07T01:31:27.673Z,99220.71
2019-02-07T01:33:55.922Z,99221.08
2019-02-07T01:36:23.470Z,99210.56
2019-02-07T01:38:50.942Z,99206.84
2019-02-07T01:41:18.411Z,99196.44
2019-02-07T01:43:45.865Z,99190.32
2019-02-07T01:46:13.292Z,99192.02
2019-02-07T01:48:40.793Z,99182.84
2019-02-07T01:51:08.271Z,99184.77
2019-02-07T01:53:35.752Z,99179.22
2019-02-07T01:56:03.224Z,99176.84
2019-02-07T01:58:30.746Z,99169.42
2019-02-07T02:00:58.191Z,99168.48
2019-02-07T02:03:25.655Z,99159.52
2019-02-07T02:05:53.125Z,99156.91
2019-02-07T02:08:22.300Z,99159.34
2019-02-07T02:10:49.777Z,99153.41
2019-02-07T02:13:17.216Z,99150.83
2019-02-07T02:15:44.696Z,99142.99
2019-02-07T02:18:12.174Z,99139.05
2019-02-07T02:20:39.638Z,99133.28
2019-02-07T02:23:08.207Z,99127.84
2019-02-07T02:25:36.352Z,99123.67
2019-02-07T02:28:03.827Z,99121.84
2019-02-07T02:30:33.017Z,99118.48
2019-02-07T02:33:00.739Z,99105.86
2019-02-07T02:35:28.198Z,99107.89
2019-02-07T02:37:55.644Z,99099.07
2019-02-07T02:40:23.112Z,99091.07
2019-02-07T02:42:50.564Z,99073.88
2019-02-07T02:45:18.968Z,99079.25
2019-02-07T02:47:46.424Z,99079.83
2019-02-07T02:50:13.903Z,99071.10
2019-02-07T02:52:42.985Z,99076.23
2019-02-07T02:55:10.489Z,99067.00
2019-02-07T02:57:37.940Z,99063.72
2019-02-07T03:00:05.399Z,99067.52
2019-02-07T03:02:35.315Z,99062.77
2019-02-07T03:05:03.066Z,99062.06
2019-02-07T03:07:45.468Z,99055.24
2019-02-07T03:10:15.771Z,99050.41
2019-02-07T03:12:56.069Z,99047.76
2019-02-07T03:15:28.059Z,99043.59
2019-02-07T03:17:56.400Z,99029.95
2019-02-07T03:20:28.824Z,99021.80
2019-02-07T03:23:01.769Z,99018.27
2019-02-07T03:25:45.035Z,99005.81
2019-02-07T03:28:12.520Z,98999.03
2019-02-07T03:30:50.034Z,98991.48
2019-02-07T03:33:17.527Z,98982.55
2019-02-07T03:35:48.845Z,98976.34
2019-02-07T03:38:18.131Z,98973.11
2019-02-07T03:40:47.500Z,98961.31
2019-02-07T03:43:21.323Z,98954.73
2019-02-07T03:46:04.685Z,98953.69
2019-02-07T03:48:37.486Z,98947.63
2019-02-07T03:51:05.012Z,98945.07
2019-02-07T03:53:37.840Z,98936.81
2019-02-07T03:56:10.973Z,98940.16
2019-02-07T03:58:43.992Z,98925.63
2019-02-07T04:01:11.476Z,98928.03
2019-02-07T04:03:55.625Z,98923.48
2019-02-07T04:06:23.101Z,98915.49
2019-02-07T04:09:06.177Z,98914.78
2019-02-07T04:11:35.427Z,98904.16
2019-02-07T04:14:08.382Z,98912.70
2019-02-07T04:16:38.327Z,98911.84
2019-02-07T04:19:08.123Z,98897.31
2019-02-07T04:21:43.096Z,98887.23
2019-02-07T04:24:18.337Z,98891.40
2019-02-07T04:26:45.457Z,98897.47
2019-02-07T04:29:17.478Z,98887.53
2019-02-07T04:32:01.601Z,98888.03
2019-02-07T04:34:43.945Z,98883.56
2019-02-07T04:37:28.091Z,98879.02
2019-02-07T04:39:56.935Z,98872.54
2019-02-07T04:42:25.162Z,98866.83
2019-02-07T04:44:52.667Z,98876.63
2019-02-07T04:47:35.063Z,98868.50
2019-02-07T04:50:04.988Z,98863.98
2019-02-07T04:52:47.603Z,98880.50
2019-02-07T04:55:30.708Z,98861.56
2019-02-07T04:58:03.833Z,98868.80
2019-02-07T05:00:46.203Z,98860.59
2019-02-07T05:03:28.569Z,98861.72
2019-02-07T05:05:58.919Z,98854.02
2019-02-07T05:08:26.354Z,98849.67
2019-02-07T05:10:54.694Z,98850.98
2019-02-07T05:13:37.050Z,98845.38
2019-02-07T05:16:12.964Z,98844.20
2019-02-07T05:18:43.945Z,98841.36
2019-02-07T05:21:17.132Z,98834.90
2019-02-07T05:23:50.121Z,98836.32
2019-02-07T05:26:22.029Z,98827.39
2019-02-07T05:29:09.323Z,98817.78
2019-02-07T05:31:43.365Z,98819.30
2019-02-07T05:34:13.333Z,98810.80
2019-02-07T05:36:57.667Z,98806.06
2019-02-07T05:39:26.913Z,98799.63
2019-02-07T05:42:11.046Z,98795.87
2019-02-07T05:44:41.921Z,98784.14
2019-02-07T05:47:24.267Z,98792.58
2019-02-07T05:49:56.107Z,98792.54
2019-02-07T05:52:27.974Z,98783.15
2019-02-07T05:54:58.141Z,98792.52
2019-02-07T05:57:45.329Z,98782.63
2019-02-07T06:00:15.698Z,98775.66
2019-02-07T06:02:44.624Z,98773.69
2019-02-07T06:05:12.888Z,98762.51
2019-02-07T06:07:42.370Z,98764.42
2019-02-07T06:10:15.271Z,98760.30
2019-02-07T06:13:01.417Z,98746.98
2019-02-07T06:15:36.312Z,98750.61
2019-02-07T06:18:04.240Z,98735.02
2019-02-07T06:20:44.367Z,98738.28
2019-02-07T06:23:26.756Z,98724.38
2019-02-07T06:25:59.752Z,98733.05
2019-02-07T06:28:43.013Z,98737.30
2019-02-07T06:31:14.727Z,98728.63
2019-02-07T06:33:43.002Z,98735.72
2019-02-07T06:36:26.275Z,98734.30
2019-02-07T06:38:54.518Z,98735.19
2019-02-07T06:41:38.763Z,98726.85
2019-02-07T06:44:09.693Z,98728.59
2019-02-07T06:46:42.696Z,98723.75
2019-02-07T06:49:16.712Z,98725.86
2019-02-07T06:51:47.694Z,98722.70
2019-02-07T06:54:15.213Z,98728.06
2019-02-07T06:56:57.617Z,98731.62
2019-02-07T06:59:25.102Z,98728.48
2019-02-07T07:01:53.360Z,98718.98
2019-02-07T07:04:24.788Z,98727.94
2019-02-07T07:07:06.046Z,98727.67
2019-02-07T07:09:49.725Z,98726.67
2019-02-07T07:12:18.019Z,98732.22
2019-02-07T07:14:57.321Z,98725.66
2019-02-07T07:17:28.184Z,98732.48
2019-02-07T07:20:11.329Z,98724.70
2019-02-07T07:22:39.647Z,98734.50
2019-02-07T07:25:07.558Z,98727.38
2019-02-07T07:27:44.927Z,98718.05
2019-02-07T07:30:17.334Z,98722.30
2019-02-07T07:33:04.605Z,98711.95
2019-02-07T07:35:32.076Z,98717.75
2019-02-07T07:38:01.057Z,98717.33
2019-02-07T07:40:44.336Z,98711.56
2019-02-07T07:43:15.067Z,98715.22
2019-02-07T07:45:48.202Z,98721.52
2019-02-07T07:48:21.357Z,98716.40
2019-02-07T07:50:54.369Z,98718.42
2019-02-07T07:53:24.656Z,98713.92
2019-02-07T07:55:56.483Z,98720.91
2019-02-07T07:58:25.437Z,98719.16
2019-02-07T08:00:56.704Z,98720.87
2019-02-07T08:03:26.517Z,98703.36
2019-02-07T08:05:55.734Z,98704.81
2019-02-07T08:08:33.137Z,98711.22
2019-02-07T08:11:21.454Z,98699.82
2019-02-07T08:13:51.702Z,98704.86
2019-02-07T08:16:24.838Z,98708.09
2019-02-07T08:19:10.070Z,98721.98
2019-02-07T08:21:38.316Z,98710.09
2019-02-07T08:24:20.692Z,98742.19
2019-02-07T08:26:53.920Z,98725.02
2019-02-07T08:29:40.982Z,98725.94
2019-02-07T08:32:15.878Z,98725.45
2019-02-07T08:34:49.393Z,98721.93
2019-02-07T08:37:22.514Z,98720.54
2019-02-07T08:39:53.838Z,98719.16
2019-02-07T08:42:37.027Z,98723.73
2019-02-07T08:45:21.188Z,98727.23
2019-02-07T08:47:58.693Z,98747.56
2019-02-07T08:50:24.485Z,98734.30
2019-02-07T08:52:54.569Z,98732.97
2019-02-07T08:55:41.722Z,98735.44
2019-02-07T08:58:11.090Z,98739.36
2019-02-07T09:00:41.553Z,98735.78
2019-02-07T09:03:22.875Z,98740.66
2019-02-07T09:05:52.882Z,98749.47
2019-02-07T09:08:31.154Z,98748.22
2019-02-07T09:10:58.611Z,98757.92
2019-02-07T09:13:37.866Z,98742.43
2019-02-07T09:16:08.747Z,98752.70
2019-02-07T09:18:47.996Z,98741.63
2019-02-07T09:21:20.989Z,98752.96
2019-02-07T09:24:02.000Z,98743.39
2019-02-07T09:26:33.382Z,98750.98
2019-02-07T09:29:05.940Z,98761.26
2019-02-07T09:31:35.177Z,98750.86
2019-02-07T09:34:08.301Z,98756.27
2019-02-07T09:36:37.455Z,98760.11
2019-02-07T09:39:15.597Z,98765.58
2019-02-07T09:41:48.651Z,98757.09
2019-02-07T09:44:17.447Z,98778.55
2019-02-07T09:46:46.013Z,98765.95
2019-02-07T09:49:16.030Z,98782.70
2019-02-07T09:51:58.421Z,98779.75
2019-02-07T09:54:34.453Z,98766.39
2019-02-07T09:57:02.758Z,98776.53
2019-02-07T09:59:47.899Z,98781.57
2019-02-07T10:02:27.282Z,98780.60
2019-02-07T10:04:57.532Z,98793.72
2019-02-07T10:07:30.500Z,98791.58
2019-02-07T10:10:14.262Z,98783.49
2019-02-07T10:12:47.423Z,98792.57
2019-02-07T10:15:18.131Z,98793.75
2019-02-07T10:18:06.419Z,98794.22
2019-02-07T10:20:50.573Z,98796.57
2019-02-07T10:23:29.898Z,98783.86
2019-02-07T10:25:59.336Z,98803.75
2019-02-07T10:28:32.255Z,98789.15
2019-02-07T10:31:03.529Z,98795.55
2019-02-07T10:33:36.591Z,98799.21
2019-02-07T10:36:20.370Z,98811.86
2019-02-07T10:38:49.299Z,98808.31
2019-02-07T10:41:18.673Z,98804.72
2019-02-07T10:43:46.944Z,98811.13
2019-02-07T10:46:21.557Z,98803.91
2019-02-07T10:48:49.321Z,98807.09
2019-02-07T10:51:19.321Z,98812.08
2019-02-07T10:53:50.242Z,98821.17
2019-02-07T10:56:18.093Z,98817.69
2019-02-07T10:58:47.264Z,98831.23
2019-02-07T11:01:29.643Z,98807.44
2019-02-07T11:04:01.871Z,98809.40
2019-02-07T11:06:35.063Z,98807.56
2019-02-07T11:09:08.160Z,98804.65
2019-02-07T11:11:37.450Z,98807.59
2019-02-07T11:14:14.931Z,98814.08
2019-02-07T11:16:42.840Z,98795.95
2019-02-07T11:19:20.929Z,98793.14
2019-02-07T11:21:55.042Z,98796.70
2019-02-07T11:24:28.031Z,98794.98
2019-02-07T11:27:11.229Z,98797.03
2019-02-07T11:29:42.595Z,98794.80
2019-02-07T11:32:10.920Z,98792.87
2019-02-07T11:34:38.399Z,98786.23
2019-02-07T11:37:09.882Z,98785.44
2019-02-07T11:39:37.346Z,98786.33
2019-02-07T11:42:10.238Z,98788.66
2019-02-07T11:44:37.710Z,98787.07
2019-02-07T11:47:20.084Z,98781.45
2019-02-07T11:49:58.270Z,98789.53
2019-02-07T11:52:32.395Z,98781.84
2019-02-07T11:55:00.355Z,98783.44
2019-02-07T11:57:44.543Z,98784.55
2019-02-07T12:00:14.494Z,98781.28
2019-02-07T12:02:59.665Z,98772.70
2019-02-07T12:05:27.156Z,98775.55
2019-02-07T12:07:54.649Z,98783.06
2019-02-07T12:10:38.984Z,98778.69
2019-02-07T12:13:11.428Z,98778.17
2019-02-07T12:15:38.970Z,98779.50
2019-02-07T12:18:12.111Z,98779.27
2019-02-07T12:20:50.372Z,98785.55
2019-02-07T12:23:18.526Z,98782.69
2019-02-07T12:25:51.588Z,98777.73
2019-02-07T12:28:38.704Z,98776.55
2019-02-07T12:31:22.818Z,98772.44
2019-02-07T12:34:05.162Z,98772.20
2019-02-07T12:36:39.083Z,98768.64
2019-02-07T12:39:17.184Z,98766.36
2019-02-07T12:41:47.148Z,98769.87
2019-02-07T12:44:17.532Z,98764.94
2019-02-07T12:46:45.514Z,98763.67
2019-02-07T12:49:28.710Z,98760.86
2019-02-07T12:52:01.998Z,98755.70
2019-02-07T12:54:33.026Z,98751.56
2019-02-07T12:57:01.053Z,98754.16
2019-02-07T12:59:34.029Z,98764.97
2019-02-07T13:02:07.002Z,98777.21
2019-02-07T13:04:49.707Z,98764.02
2019-02-07T13:07:21.375Z,98770.88
2019-02-07T13:10:04.722Z,98768.38
2019-02-07T13:12:35.191Z,98766.77
2019-02-07T13:15:04.573Z,98762.91
2019-02-07T13:17:37.673Z,98768.15
2019-02-07T13:20:10.771Z,98762.06
2019-02-07T13:22:40.049Z,98755.47
2019-02-07T13:25:11.957Z,98748.39
2019-02-07T13:28:00.164Z,98733.76
2019-02-07T13:30:28.584Z,98746.88
2019-02-07T13:33:10.935Z,98742.64
2019-02-07T13:35:53.324Z,98746.08
2019-02-07T13:38:26.444Z,98749.85
2019-02-07T13:41:03.777Z,98753.19
2019-02-07T13:43:36.877Z,98749.80
2019-02-07T13:46:10.017Z,98753.36
2019-02-07T13:48:52.371Z,98751.08
2019-02-07T13:51:34.696Z,98746.83
2019-02-07T13:54:02.183Z,98748.92
2019-02-07T13:56:44.886Z,98756.53
2019-02-07T13:59:14.836Z,98743.12
2019-02-07T14:01:48.156Z,98751.34
2019-02-07T14:04:18.038Z,98739.91
2019-02-07T14:06:52.149Z,98743.02
2019-02-07T14:09:25.649Z,98739.83
2019-02-07T14:12:03.915Z,98752.30
2019-02-07T14:14:46.342Z,98743.65
2019-02-07T14:17:14.070Z,98753.15
2019-02-07T14:19:44.312Z,98760.58
2019-02-07T14:22:15.322Z,98764.17
2019-02-07T14:24:47.224Z,98760.94
2019-02-07T14:27:15.222Z,98760.52
2019-02-07T14:29:44.061Z,98772.63
2019-02-07T14:32:24.399Z,98774.11
2019-02-07T14:34:57.483Z,98773.88
2019-02-07T14:37:30.537Z,98790.91
2019-02-07T14:40:00.396Z,98772.80
2019-02-07T14:42:44.598Z,98790.19
2019-02-07T14:45:12.893Z,98780.72
2019-02-07T14:47:40.387Z,98777.44
2019-02-07T14:50:15.025Z,98789.60
2019-02-07T14:52:35.550Z,98795.91
2019-02-07T14:55:03.031Z,98803.16
2019-02-07T14:57:30.468Z,98796.63
2019-02-07T14:59:57.984Z,98812.13
2019-02-07T15:02:25.583Z,98806.88
2019-02-07T15:04:53.168Z,98818.69
2019-02-07T15:07:20.643Z,98797.34
2019-02-07T15:09:48.095Z,98797.46
2019-02-07T15:12:15.554Z,98802.50
2019-02-07T15:14:43.156Z,98808.17
2019-02-07T15:17:10.641Z,98801.69
2019-02-07T15:19:38.145Z,98797.82
2019-02-07T15:22:05.654Z,98809.16
2019-02-07T15:24:33.111Z,98803.89
2019-02-07T15:27:00.591Z,98807.20
2019-02-07T15:29:28.117Z,98801.23
2019-02-07T15:31:55.613Z,98800.93
2019-02-07T15:34:23.066Z,98807.26
2019-02-07T15:36:50.541Z,98809.76
2019-02-07T15:39:17.970Z,98802.81
2019-02-07T15:41:45.425Z,98802.75
2019-02-07T15:44:12.844Z,98806.28
2019-02-07T15:46:40.376Z,98802.40
2019-02-07T15:49:07.816Z,98817.80
2019-02-07T15:51:35.284Z,98803.27
2019-02-07T15:54:02.747Z,98811.65
2019-02-07T15:56:30.215Z,98814.97
2019-02-07T15:59:09.622Z,98792.70
2019-02-07T16:01:37.068Z,98799.78
2019-02-07T16:04:06.316Z,98811.42
2019-02-07T16:06:33.804Z,98798.03
2019-02-07T16:09:01.306Z,98796.37
2019-02-07T16:11:28.778Z,98792.12
2019-02-07T16:13:56.260Z,98812.45
2019-02-07T16:16:23.730Z,98810.76
2019-02-07T16:18:51.216Z,98800.14
2019-02-07T16:21:18.697Z,98811.48
2019-02-07T16:23:46.148Z,98810.85
2019-02-07T16:26:13.654Z,98808.51
2019-02-07T16:28:41.122Z,98811.56
2019-02-07T16:31:08.622Z,98805.15
2019-02-07T16:33:36.098Z,98830.10
2019-02-07T16:36:03.554Z,98820.52
2019-02-07T16:38:31.077Z,98829.50
2019-02-07T16:40:58.534Z,98838.70
2019-02-07T16:43:26.044Z,98843.11
2019-02-07T16:45:54.161Z,98835.31
2019-02-07T16:48:21.682Z,98834.64
2019-02-07T16:50:59.631Z,98831.55
2019-02-07T16:53:16.586Z,98839.31
2019-02-07T16:55:44.981Z,98830.83
2019-02-07T16:58:12.514Z,98839.56
2019-02-07T17:00:40.079Z,98842.91
2019-02-07T17:03:07.520Z,98838.16
2019-02-07T17:05:37.693Z,98847.14
2019-02-07T17:08:03.395Z,98845.92
2019-02-07T17:10:32.567Z,98841.34
2019-02-07T17:13:00.046Z,98846.70
2019-02-07T17:15:27.491Z,98856.80
2019-02-07T17:17:55.065Z,98859.00
2019-02-07T17:20:30.882Z,98864.77
2019-02-07T17:22:58.431Z,98867.30
2019-02-07T17:25:25.868Z,98869.28
2019-02-07T17:27:53.395Z,98860.59
2019-02-07T17:30:20.840Z,98879.33
2019-02-07T17:32:48.320Z,98880.24
2019-02-07T17:35:15.778Z,98882.76
2019-02-07T17:37:43.269Z,98892.02
2019-02-07T17:40:15.129Z,98896.55
2019-02-07T17:42:42.577Z,98887.23
2019-02-07T17:45:10.938Z,98901.35
2019-02-07T17:47:39.569Z,98908.39
2019-02-07T17:50:07.062Z,98918.27
2019-02-07T17:52:34.543Z,98914.94
2019-02-07T17:55:02.017Z,98920.94
2019-02-07T17:57:29.481Z,98911.33
2019-02-07T17:59:56.969Z,98919.94
2019-02-07T18:02:24.581Z,98921.73
2019-02-07T18:04:52.042Z,98934.06
2019-02-07T18:07:19.551Z,98929.72
2019-02-07T18:09:47.022Z,98931.85
2019-02-07T18:12:14.496Z,98931.83
2019-02-07T18:14:42.015Z,98938.92
2019-02-07T18:17:09.515Z,98947.70
2019-02-07T18:19:36.993Z,98942.25
2019-02-07T18:22:04.463Z,98950.06
2019-02-07T18:24:31.907Z,98959.56
2019-02-07T18:26:59.355Z,98960.39
2019-02-07T18:29:26.867Z,98959.91
2019-02-07T18:31:54.381Z,98952.70
2019-02-07T18:34:21.807Z,98958.91
2019-02-07T18:36:49.370Z,98965.56
2019-02-07T18:39:16.854Z,98967.51
2019-02-07T18:41:44.410Z,98964.33
2019-02-07T18:44:11.880Z,98968.33
2019-02-07T18:46:39.442Z,98971.39
2019-02-07T18:49:06.940Z,98978.66
2019-02-07T18:51:44.959Z,98979.32
2019-02-07T18:54:01.903Z,98988.61
2019-02-07T18:56:29.351Z,98983.08
2019-02-07T18:58:57.188Z,98985.78
2019-02-07T19:01:24.686Z,98993.30
2019-02-07T19:03:52.192Z,98978.23
2019-02-07T19:06:19.695Z,98994.41
2019-02-07T19:08:47.251Z,99001.97
2019-02-07T19:11:14.739Z,98997.28
2019-02-07T19:13:42.228Z,99000.89
2019-02-07T19:16:09.730Z,99000.71
2019-02-07T19:18:37.177Z,99007.02
2019-02-07T19:21:04.663Z,99007.72
2019-02-07T19:23:32.147Z,99014.11
2019-02-07T19:25:59.643Z,99012.68
2019-02-07T19:28:27.833Z,99020.53
2019-02-07T19:30:55.387Z,99015.08
2019-02-07T19:33:22.832Z,99017.12
2019-02-07T19:35:50.344Z,99020.38
2019-02-07T19:38:17.843Z,99025.96
2019-02-07T19:40:45.343Z,99026.76
2019-02-07T19:43:12.930Z,99013.95
2019-02-07T19:45:40.392Z,99027.70
2019-02-07T19:48:07.906Z,99033.91
2019-02-07T19:50:35.363Z,99027.59
2019-02-07T19:53:02.846Z,99032.22
2019-02-07T19:55:30.311Z,99024.91
2019-02-07T19:57:58.418Z,99026.54
2019-02-07T20:00:25.876Z,99018.77
2019-02-07T20:02:53.425Z,99032.39
2019-02-07T20:05:20.897Z,99033.59
2019-02-07T20:07:48.365Z,99030.41
2019-02-07T20:10:17.397Z,99033.52
2019-02-07T20:12:44.831Z,99030.38
2019-02-07T20:15:12.338Z,99033.17
2019-02-07T20:17:39.812Z,99042.24
2019-02-07T20:20:07.302Z,99039.14
2019-02-07T20:22:34.821Z,99044.56
2019-02-07T20:25:02.278Z,99046.97
2019-02-07T20:27:29.837Z,99047.98
2019-02-07T20:29:57.468Z,99042.87
2019-02-07T20:32:24.944Z,99051.75
2019-02-07T20:34:52.466Z,99054.80
2019-02-07T20:37:19.932Z,99056.91
2019-02-07T20:39:47.584Z,99060.38
2019-02-07T20:42:15.042Z,99053.70
2019-02-07T20:44:42.608Z,99062.26
2019-02-07T20:47:10.114Z,99059.85
2019-02-07T20:49:37.610Z,99065.22
2019-02-07T20:52:05.116Z,99072.67
2019-02-07T20:54:32.591Z,99071.94
2019-02-07T20:57:00.075Z,99081.23
2019-02-07T20:59:27.580Z,99068.70
2019-02-07T21:01:55.045Z,99068.79
2019-02-07T21:04:22.667Z,99080.55
2019-02-07T21:06:50.140Z,99083.98
2019-02-07T21:09:17.640Z,99081.34
2019-02-07T21:11:45.084Z,99083.55
2019-02-07T21:14:12.622Z,99086.57
2019-02-07T21:16:40.112Z,99089.73
2019-02-07T21:19:07.613Z,99093.30
2019-02-07T21:21:35.100Z,99098.31
2019-02-07T21:24:03.480Z,99096.52
2019-02-07T21:26:31.033Z,99100.73
2019-02-07T21:28:58.510Z,99107.06
2019-02-07T21:31:26.073Z,99103.67
2019-02-07T21:33:53.562Z,99118.55
2019-02-07T21:36:21.044Z,99120.90
2019-02-07T21:38:48.579Z,99123.42
2019-02-07T21:41:16.084Z,99128.22
2019-02-07T21:43:43.546Z,99124.17
2019-02-07T21:46:11.034Z,99129.93
2019-02-07T21:48:38.497Z,99129.12
2019-02-07T21:51:05.979Z,99128.05
2019-02-07T21:53:33.479Z,99138.44
2019-02-07T21:56:00.927Z,99142.74
2019-02-07T21:58:28.389Z,99138.55
2019-02-07T22:00:56.493Z,99147.34
2019-02-07T22:03:24.067Z,99144.29
2019-02-07T22:05:51.537Z,99147.70
2019-02-07T22:08:19.075Z,99155.66
2019-02-07T22:10:46.547Z,99146.81
2019-02-07T22:13:14.094Z,99146.31
2019-02-07T22:15:41.613Z,99147.24
2019-02-07T22:18:09.239Z,99149.84
2019-02-07T22:20:36.696Z,99149.39
2019-02-07T22:23:04.262Z,99144.62
2019-02-07T22:25:31.772Z,99152.98
2019-02-07T22:27:59.348Z,99150.41
2019-02-07T22:30:27.764Z,99151.64
2019-02-07T22:32:55.205Z,99153.95
2019-02-07T22:35:22.715Z,99156.88
2019-02-07T22:37:50.193Z,99163.98
2019-02-07T22:40:17.660Z,99162.63
2019-02-07T22:42:48.011Z,99168.23
2019-02-07T22:45:12.805Z,99171.31
2019-02-07T22:47:40.457Z,99189.67
2019-02-07T22:50:10.651Z,99189.34
2019-02-07T22:52:38.104Z,99183.64
2019-02-07T22:55:05.568Z,99179.80
2019-02-07T22:57:33.511Z,99178.75
2019-02-07T23:00:01.092Z,99187.81
2019-02-07T23:02:28.618Z,99185.59
2019-02-07T23:04:56.127Z,99189.34
2019-02-07T23:07:23.792Z,99179.89
2019-02-07T23:09:51.245Z,99178.59
2019-02-07T23:12:19.091Z,99185.83
2019-02-07T23:14:46.540Z,99185.77
2019-02-07T23:17:14.114Z,99184.13
2019-02-07T23:19:42.455Z,99176.99
2019-02-07T23:22:10.281Z,99186.72
2019-02-07T23:24:37.862Z,99191.41
2019-02-07T23:27:05.343Z,99187.83
2019-02-07T23:29:33.726Z,99193.86
2019-02-07T23:32:01.193Z,99191.95
2019-02-07T23:34:28.682Z,99191.51
2019-02-07T23:36:56.240Z,99185.95
2019-02-07T23:39:23.680Z,99187.42
2019-02-07T23:41:51.255Z,99197.81
2019-02-07T23:44:18.800Z,99191.81
2019-02-07T23:46:46.366Z,99196.17
2019-02-07T23:49:13.820Z,99195.98
2019-02-07T23:51:41.302Z,99199.69
2019-02-07T23:54:08.853Z,99206.78
2019-02-07T23:56:36.334Z,99200.20
2019-02-07T23:59:03.943Z,99201.03
